Northumberland Strait - western half: Past 24 Hour Conditions

 

Winterland

05:30 PM NDT 24 July 2014
This table is a summary of hourly weather conditions for the past 24 hours.
Date / Time
(NDT)
Wind(knots) Conditions Visibility(km) Pressure(kPa) Air tempC) Relative humidity(%) Dew pointC) Humidex
24 July 2014
17:30 WSW 14 gust 24 Cloudy 15 100.9 23 78 19 29
16:30 WSW 17 Cloudy 15 101.0 22 81 18 28
15:30 SW 15 gust 24 Mostly Cloudy 15 100.9 22 76 18 28
14:30 SW 15 gust 21 Cloudy 15 100.9 22 76 18 28
13:30 WSW 17 Cloudy 15 100.9 20 86 17 *
12:30 SW 14 gust 19 Cloudy 15 100.9 19 85 17 *
11:30 SW 16 Cloudy 15 100.9 19 84 16 *
10:30 SW 13 gust 18 Cloudy 15 100.8 21 78 17 26
9:30 WSW 11 gust 18 Cloudy 13 100.8 20 83 17 *
8:30 WSW 13 Cloudy 13 100.7 18 88 16 *
7:30 WSW 11 Cloudy 11 100.7 18 90 16 *
6:30 WSW 13 Cloudy 10 100.7 17 92 16 *
5:30 WSW 9 Cloudy 10 100.7 17 93 16 *
4:30 SW 12 gust 18 Cloudy 13 100.7 17 93 16 *
3:30 WSW 8 gust 16 Cloudy 15 100.7 17 92 16 *
2:30 W 9 gust 15 Cloudy 15 100.8 17 90 16 *
1:30 W 9 gust 16 Clear 15 100.8 16 91 15 *
0:30 W 7 Clear 15 100.8 16 87 14 *
23 July 2014
23:30 WSW 13 Clear 15 100.8 16 85 14 *
22:30 WSW 12 gust 17 Clear 15 100.8 17 82 14 *
21:30 SW 10 gust 16 Clear 15 100.8 17 81 14 *
20:30 WSW 11 Sunny 15 100.8 19 77 14 *
19:30 WSW 12 Sunny 15 100.8 21 69 15 25
18:30 WSW 13 gust 18 Sunny 15 100.7 23 64 16 28
17:30 WSW 13 gust 19 Sunny 15 100.8 24 64 17 29
 
Map of Atlantic - Newfoundland marine weather areas Southwestern Grand Banks - 44138 Banquereau - 44139 Tail of the Bank - 44140 Nickerson Bank - 44251 Northeast Burgeo Bank - 44255 Blanc-Sablon Airport Cap Whittle Chevery Natashquan Airport Heath Point Miscou Island Grand Étang Ingonish Beach North Mountain St.Paul Island J.A. Douglas McCurdy Sydney Airport Charlottetown Airport East Point North Cape Argentia Bonavista Burgeo Cape Race Corner Brook Daniel's Harbour Englee Ferolle Point La Scie Port aux Basques Rocky Harbour Sagona Island St. Anthony Airport St. John's Int'l Airport St. Lawrence Stephenville Airport Twillingate Winterland Wreckhouse Cartwright Airport Mary's Harbour Grates Cove Pool's Island Marticot Island Long Pond Îles de la Madeleine Airport
Legend: buoyBuoy land stationLand Station